Time;durP1;ratioP1;P1;durP2;ratioP2;P2;SDS_P1;SDS_P2;PMS_P1;PMS_P2;Temp;Humidity;BMP_temperature;BMP_pressure;BME280_temperature;BME280_humidity;BME280_pressure;Samples;Min_cycle;Max_cycle;Signal;HPM_P1;HPM_P2
2022/04/08 03:24:54;;;;;;;;;;;;;;;6.92;100.00;98256.09;5151410;23;19935;-80
2022/04/08 03:27:19;;;;;;;;;;;;;;;6.90;100.00;98256.16;4934056;29;19927;-80
2022/04/08 03:29:44;;;;;;;;;;;;;;;6.93;100.00;98257.81;4935587;29;19919;-79
2022/04/08 03:32:10;;;;;;;;;;;;;;;6.92;100.00;98248.19;4935567;29;20440;-78
2022/04/08 03:34:36;;;;;;;;;;;;;;;6.95;100.00;98250.66;4935077;29;20359;-78
2022/04/08 03:37:01;;;;;;;;;;;;;;;6.95;100.00;98249.81;4934578;29;19918;-79
2022/04/08 03:39:26;;;;;;;;;;;;;;;6.98;100.00;98253.13;4933419;29;19923;-80
2022/04/08 03:41:53;;;;;;;;;;;;;;;7.00;100.00;98245.16;4935182;29;19923;-80
2022/04/08 03:44:18;;;;;;;;;;;;;;;6.98;100.00;98239.13;4933516;29;19919;-80
2022/04/08 03:46:45;;;;;;;;;;;;;;;6.98;100.00;98236.50;4934062;29;19935;-80
2022/04/08 03:49:14;;;;;;;;;;;;;;;6.98;100.00;98239.97;4935313;29;19949;-79
2022/04/08 03:51:43;;;;;;;;;;;;;;;6.99;100.00;98241.69;4934760;29;19919;-80
2022/04/08 03:54:08;;;;;;;;;;;;;;;7.01;100.00;98246.88;4934144;29;19925;-79
2022/04/08 03:56:34;;;;;;;;;;;;;;;7.01;100.00;98247.72;4935159;29;19923;-79
2022/04/08 03:58:59;;;;;;;;;;;;;;;6.29;100.00;98236.47;4933935;29;19918;-79
2022/04/08 04:01:24;;;;;;;;;;;;;;;6.10;100.00;98241.78;4934925;29;19926;-82
2022/04/08 04:03:49;;;;;;;;;;;;;;;6.05;100.00;98229.78;4935268;29;19923;-82
2022/04/08 04:06:15;;;;;;;;;;;;;;;5.94;100.00;98225.88;4933702;29;19918;-81
2022/04/08 04:08:40;;;;;;;;;;;;;;;5.80;100.00;98223.91;4934032;29;19933;-81
2022/04/08 04:11:05;;;;;;;;;;;;;;;5.69;100.00;98231.47;4935069;29;19974;-82
2022/04/08 04:13:30;;;;;;;;;;;;;;;5.61;100.00;98242.34;4935018;29;20453;-81
2022/04/08 04:15:56;;;;;;;;;;;;;;;5.56;100.00;98239.09;4933712;29;20318;-81
2022/04/08 04:18:21;;;;;;;;;;;;;;;5.50;100.00;98239.38;4934839;29;20306;-81
2022/04/08 04:20:47;;;;;;;;;;;;;;;5.43;100.00;98230.94;4934825;29;19919;-80
2022/04/08 04:23:12;;;;;;;;;;;;;;;5.36;100.00;98245.28;4933600;29;20390;-79
2022/04/08 04:25:37;;;;;;;;;;;;;;;5.30;100.00;98247.31;4933274;29;20315;-79
2022/04/08 04:28:04;;;;;;;;;;;;;;;5.24;100.00;98240.59;4934849;29;19923;-80
2022/04/08 04:30:30;;;;;;;;;;;;;;;5.23;100.00;98252.00;4934502;29;20350;-80
2022/04/08 04:32:56;;;;;;;;;;;;;;;5.19;100.00;98245.19;4934349;29;20010;-81
2022/04/08 04:35:22;;;;;;;;;;;;;;;5.15;100.00;98249.72;4932679;29;20339;-80
2022/04/08 07:45:09;;;;;;;;;;;;;;;4.11;89.44;98074.19;5495636;23;19942;-79
2022/04/08 07:47:34;;;;;;;;;;;;;;;4.08;89.41;98076.94;4932823;29;19923;-79
2022/04/08 07:50:04;;;;;;;;;;;;;;;4.08;89.59;98074.31;4935038;29;20337;-79
2022/04/08 07:52:29;;;;;;;;;;;;;;;4.09;89.54;98071.63;4934997;29;20421;-78
2022/04/08 07:54:55;;;;;;;;;;;;;;;4.07;89.65;98070.88;4935148;29;19918;-79
2022/04/08 07:57:21;;;;;;;;;;;;;;;4.06;89.71;98057.81;4935146;29;19926;-79
2022/04/08 07:59:46;;;;;;;;;;;;;;;4.05;89.49;98066.59;4933296;29;19919;-79
2022/04/08 08:02:11;;;;;;;;;;;;;;;4.10;89.49;98060.25;4933909;29;20341;-79
2022/04/08 08:04:37;;;;;;;;;;;;;;;4.07;89.40;98052.53;4934514;29;20267;-79
2022/04/08 08:07:03;;;;;;;;;;;;;;;4.08;89.19;98053.34;4933897;29;19919;-79
2022/04/08 08:09:28;;;;;;;;;;;;;;;4.08;89.25;98050.75;4935083;29;19923;-79
2022/04/08 08:11:53;;;;;;;;;;;;;;;4.09;89.14;98055.91;4935057;29;20404;-80
2022/04/08 08:14:18;;;;;;;;;;;;;;;4.04;89.11;98047.41;4933666;29;19922;-78
2022/04/08 08:16:44;;;;;;;;;;;;;;;4.04;89.05;98044.78;4934321;29;19922;-78
2022/04/08 08:19:09;;;;;;;;;;;;;;;4.02;89.00;98046.63;4934947;29;20370;-79
2022/04/08 08:21:34;;;;;;;;;;;;;;;4.04;89.00;98047.41;4934707;29;20255;-79
2022/04/08 08:23:59;;;;;;;;;;;;;;;4.04;88.72;98047.41;4934988;29;19978;-79
2022/04/08 08:26:24;;;;;;;;;;;;;;;4.02;88.74;98038.78;4934671;29;19926;-79
2022/04/08 08:28:50;;;;;;;;;;;;;;;4.04;88.80;98033.44;4933930;29;19927;-78
2022/04/08 08:31:16;;;;;;;;;;;;;;;4.01;88.84;98034.44;4934306;29;20386;-80
2022/04/08 08:33:43;;;;;;;;;;;;;;;4.02;88.83;98040.53;4935094;29;19930;-79
2022/04/08 08:36:08;;;;;;;;;;;;;;;4.03;88.65;98027.34;4935084;29;19919;-79
2022/04/08 08:38:33;;;;;;;;;;;;;;;4.05;88.54;98022.88;4934674;29;20286;-78
2022/04/08 08:40:59;;;;;;;;;;;;;;;4.03;88.67;98018.66;4934801;29;19926;-79
2022/04/08 08:43:24;;;;;;;;;;;;;;;4.01;88.68;98013.47;4934448;29;19922;-79
2022/04/08 08:45:49;;;;;;;;;;;;;;;4.00;88.78;98017.88;4946259;29;19930;-80
2022/04/08 08:48:17;;;;;;;;;;;;;;;4.04;88.92;98012.47;4933307;29;20009;-79
2022/04/08 08:50:45;;;;;;;;;;;;;;;4.01;88.55;98013.47;4933290;29;20310;-80
2022/04/08 08:53:11;;;;;;;;;;;;;;;3.99;88.54;98005.69;4933869;29;19926;-80
2022/04/08 08:55:37;;;;;;;;;;;;;;;3.99;88.50;98005.69;4934154;29;19922;-77
2022/04/08 08:58:02;;;;;;;;;;;;;;;3.99;88.57;98007.44;4934753;29;19973;-81
2022/04/08 09:00:28;;;;;;;;;;;;;;;3.98;88.51;97998.72;4932071;29;19946;-79
2022/04/08 09:02:53;;;;;;;;;;;;;;;3.98;88.42;98003.13;4933994;29;19930;-79
2022/04/08 09:05:19;;;;;;;;;;;;;;;3.97;88.32;97999.66;4934329;29;19918;-78
2022/04/08 09:07:55;;;;;;;;;;;;;;;3.99;88.25;97997.81;4934350;29;20559;-79
2022/04/08 09:10:23;;;;;;;;;;;;;;;4.00;88.19;97985.53;4934152;29;19919;-80
2022/04/08 09:12:52;;;;;;;;;;;;;;;4.02;88.13;97985.47;4934260;29;19926;-80
2022/04/08 09:15:18;;;;;;;;;;;;;;;3.99;87.97;97987.31;4931717;29;20382;-80
2022/04/08 09:17:43;;;;;;;;;;;;;;;3.98;88.09;97980.38;4934442;29;19970;-79
2022/04/08 09:20:10;;;;;;;;;;;;;;;3.97;87.97;97977.81;4934326;29;19919;-79
2022/04/08 09:22:36;;;;;;;;;;;;;;;3.99;88.10;97976.84;4933074;29;19930;-79
2022/04/08 09:25:06;;;;;;;;;;;;;;;4.02;88.21;97961.88;4934200;29;19922;-80
2022/04/08 09:27:32;;;;;;;;;;;;;;;4.01;88.25;97968.91;4935518;29;19923;-80
2022/04/08 09:29:57;;;;;;;;;;;;;;;4.02;88.20;97968.00;4935460;29;20279;-79
2022/04/08 09:32:25;;;;;;;;;;;;;;;4.02;88.33;97957.53;4937894;29;19919;-81
2022/04/08 09:34:51;;;;;;;;;;;;;;;3.99;88.50;97955.03;4936589;29;19974;-80
2022/04/08 09:37:17;;;;;;;;;;;;;;;4.02;88.32;97948.78;4937869;29;19922;-80
2022/04/08 09:39:52;;;;;;;;;;;;;;;4.03;88.23;97938.22;4937827;29;19918;-79
2022/04/08 09:42:17;;;;;;;;;;;;;;;4.03;88.26;97933.00;4937484;29;20009;-80
2022/04/08 09:44:43;;;;;;;;;;;;;;;4.02;88.18;97930.44;4935079;29;20065;-80
2022/04/08 09:47:08;;;;;;;;;;;;;;;4.03;88.21;97919.03;4937518;29;19927;-79
2022/04/08 09:49:33;;;;;;;;;;;;;;;4.04;88.25;97915.50;4936298;29;19919;-80
2022/04/08 09:51:58;;;;;;;;;;;;;;;4.06;88.27;97919.75;4936325;29;19923;-79
2022/04/08 09:54:27;;;;;;;;;;;;;;;4.05;88.35;97915.41;4936963;29;19925;-81
2022/04/08 09:56:53;;;;;;;;;;;;;;;4.04;88.49;97908.50;4952143;28;20009;-81
2022/04/08 09:59:22;;;;;;;;;;;;;;;4.04;88.61;97898.00;4934889;29;19919;-80
2022/04/08 10:01:50;;;;;;;;;;;;;;;4.04;88.42;97891.91;4936849;29;19993;-81
2022/04/08 10:04:19;;;;;;;;;;;;;;;4.03;88.34;97891.06;4950073;29;20446;-80
2022/04/08 10:06:45;;;;;;;;;;;;;;;4.04;88.23;97889.28;4940768;29;20399;-80
2022/04/08 10:09:11;;;;;;;;;;;;;;;4.04;88.24;97882.28;4933830;29;20013;-80
2022/04/08 10:11:47;;;;;;;;;;;;;;;4.03;88.04;97870.09;4936400;29;19921;-79
2022/04/08 10:14:16;;;;;;;;;;;;;;;4.06;88.13;97869.94;4935933;29;19923;-80
2022/04/08 10:16:42;;;;;;;;;;;;;;;4.01;87.90;97861.47;4935730;29;20010;-80
2022/04/08 10:19:07;;;;;;;;;;;;;;;4.05;88.01;97865.63;4937086;29;20449;-80
2022/04/08 10:21:37;;;;;;;;;;;;;;;4.06;87.70;97863.88;4936831;29;19914;-79
2022/04/08 10:24:07;;;;;;;;;;;;;;;4.03;87.51;97856.16;4936880;29;20009;-80
2022/04/08 10:26:33;;;;;;;;;;;;;;;4.03;87.42;97857.00;4936686;29;19922;-79
2022/04/08 10:29:08;;;;;;;;;;;;;;;4.05;87.37;97849.91;4935833;29;19919;-80
2022/04/08 10:31:34;;;;;;;;;;;;;;;4.01;87.27;97843.13;4936606;29;20409;-81
2022/04/08 10:33:59;;;;;;;;;;;;;;;4.05;87.29;97838.56;4936699;29;19958;-81
2022/04/08 10:36:34;;;;;;;;;;;;;;;4.03;87.21;97830.78;4936665;29;19958;-81
2022/04/08 10:39:09;;;;;;;;;;;;;;;4.02;87.12;97826.47;4935511;29;19919;-82
2022/04/08 10:41:43;;;;;;;;;;;;;;;4.02;87.09;97818.63;4935154;29;20285;-80
2022/04/08 10:44:08;;;;;;;;;;;;;;;4.02;87.03;97817.75;4933188;29;20278;-81
2022/04/08 10:46:34;;;;;;;;;;;;;;;4.01;86.89;97809.03;4936255;29;19933;-80
2022/04/08 10:48:59;;;;;;;;;;;;;;;4.01;86.70;97801.19;4935974;29;20002;-82
2022/04/08 10:51:29;;;;;;;;;;;;;;;4.02;86.99;97791.53;4935241;29;20001;-80
2022/04/08 10:54:02;;;;;;;;;;;;;;;4.00;86.85;97786.38;4936313;29;19922;-81
2022/04/08 10:56:31;;;;;;;;;;;;;;;3.99;86.73;97776.84;4935130;29;19919;-80
2022/04/08 10:58:59;;;;;;;;;;;;;;;4.01;86.77;97774.97;4935380;29;20346;-81
2022/04/08 11:01:25;;;;;;;;;;;;;;;4.00;86.55;97770.66;4936325;29;19918;-80
2022/04/08 11:03:54;;;;;;;;;;;;;;;3.98;86.39;97764.63;4935429;29;19923;-81
2022/04/08 11:06:19;;;;;;;;;;;;;;;3.99;86.30;97766.34;4936288;29;19925;-81
2022/04/08 11:08:45;;;;;;;;;;;;;;;3.97;86.13;97758.56;4936042;29;20009;-82
2022/04/08 11:11:11;;;;;;;;;;;;;;;4.02;86.15;97760.09;4935407;29;19923;-79
2022/04/08 11:13:39;;;;;;;;;;;;;;;3.97;85.99;97753.31;4934584;29;19980;-80
2022/04/08 11:16:04;;;;;;;;;;;;;;;3.99;85.89;97758.47;4933887;29;19930;-79
2022/04/08 11:18:30;;;;;;;;;;;;;;;4.00;85.95;97763.66;4935924;29;19923;-80
2022/04/08 11:20:55;;;;;;;;;;;;;;;4.02;85.89;97766.19;4934776;29;20397;-80
2022/04/08 11:23:24;;;;;;;;;;;;;;;4.01;85.71;97761.88;4935894;29;20279;-81
2022/04/08 11:25:49;;;;;;;;;;;;;;;3.99;85.65;97740.13;4935743;29;19926;-82
2022/04/08 11:28:16;;;;;;;;;;;;;;;3.99;85.36;97733.13;4934466;29;20317;-79
2022/04/08 11:30:42;;;;;;;;;;;;;;;4.02;85.23;97734.75;4933202;29;19929;-81
2022/04/08 11:33:14;;;;;;;;;;;;;;;4.02;85.11;97731.25;4935802;29;19922;-79
2022/04/08 11:35:40;;;;;;;;;;;;;;;4.04;85.05;97717.16;4935561;29;19919;-80
2022/04/08 11:38:15;;;;;;;;;;;;;;;4.02;84.94;97713.78;4935656;29;19954;-80
2022/04/08 11:40:40;;;;;;;;;;;;;;;4.01;84.75;97712.06;4935171;29;20278;-81
2022/04/08 11:43:06;;;;;;;;;;;;;;;3.99;84.80;97703.44;4935730;29;19942;-80
2022/04/08 11:45:31;;;;;;;;;;;;;;;4.01;84.62;97704.22;4934107;29;20396;-80
2022/04/08 11:47:56;;;;;;;;;;;;;;;3.99;84.29;97696.44;4935405;29;19934;-81
2022/04/08 11:50:23;;;;;;;;;;;;;;;4.02;84.34;97695.44;4935351;29;19990;-79
2022/04/08 11:52:56;;;;;;;;;;;;;;;4.00;84.27;97685.03;4935282;29;19930;-80
2022/04/08 11:55:22;;;;;;;;;;;;;;;4.00;84.21;97686.78;4933651;29;20267;-81
2022/04/08 11:57:47;;;;;;;;;;;;;;;4.00;84.18;97673.69;4935230;29;19918;-81
2022/04/08 12:00:13;;;;;;;;;;;;;;;4.00;84.23;97663.19;4933993;29;19930;-81
2022/04/08 12:02:38;;;;;;;;;;;;;;;4.00;84.13;97671.94;4935305;29;19925;-80
2022/04/08 12:05:04;;;;;;;;;;;;;;;4.03;84.22;97652.56;4935075;29;20326;-82
2022/04/08 12:07:30;;;;;;;;;;;;;;;4.03;84.21;97646.47;4935009;29;19962;-82
2022/04/08 12:09:56;;;;;;;;;;;;;;;4.06;83.99;97647.16;4934231;29;19923;-81
2022/04/08 12:12:22;;;;;;;;;;;;;;;4.03;83.71;97649.09;4933551;29;19923;-81
2022/04/08 12:14:47;;;;;;;;;;;;;;;4.02;83.55;97622.06;4932413;29;20014;-80
2022/04/08 12:17:13;;;;;;;;;;;;;;;4.06;83.52;97620.97;4933534;29;20005;-80
2022/04/08 12:19:39;;;;;;;;;;;;;;;4.03;82.85;97657.81;4934884;29;20001;-80
2022/04/08 12:22:14;;;;;;;;;;;;;;;4.03;82.94;97668.28;4934855;29;19958;-82
2022/04/08 12:24:40;;;;;;;;;;;;;;;4.04;82.77;97645.53;4933228;29;20013;-81
2022/04/08 12:27:25;;;;;;;;;;;;;;;4.05;82.84;97649.88;4932737;29;19991;-80
2022/04/08 12:29:59;;;;;;;;;;;;;;;4.04;82.72;97649.03;4933235;29;20379;-81
2022/04/08 12:32:32;;;;;;;;;;;;;;;4.04;82.46;97663.88;4949305;28;20061;-81
2022/04/08 12:34:57;;;;;;;;;;;;;;;4.03;82.23;97668.28;4932606;29;20310;-82
2022/04/08 12:37:22;;;;;;;;;;;;;;;4.05;82.20;97666.44;4933450;29;19919;-80
2022/04/08 12:39:47;;;;;;;;;;;;;;;4.04;82.28;97649.03;4934833;29;19919;-82
2022/04/08 12:42:13;;;;;;;;;;;;;;;4.07;82.19;97643.63;4934738;29;20010;-80
2022/04/08 12:44:38;;;;;;;;;;;;;;;4.04;82.13;97650.78;4933405;29;19922;-81
2022/04/08 12:47:04;;;;;;;;;;;;;;;4.04;82.22;97649.03;4934724;29;20438;-81
2022/04/08 12:49:29;;;;;;;;;;;;;;;4.10;82.40;97634.75;4933280;29;20374;-80
2022/04/08 12:51:54;;;;;;;;;;;;;;;4.21;83.74;97644.69;4934411;29;19923;-81
2022/04/08 12:54:20;;;;;;;;;;;;;;;4.23;85.13;97642.84;4933922;29;19927;-81
2022/04/08 12:56:45;;;;;;;;;;;;;;;4.22;86.28;97635.91;4934258;29;19926;-80
2022/04/08 12:59:10;;;;;;;;;;;;;;;4.23;87.62;97616.63;4933431;29;19930;-81
2022/04/08 13:01:36;;;;;;;;;;;;;;;4.39;89.60;97607.06;4934662;29;19919;-80
2022/04/08 13:04:01;;;;;;;;;;;;;;;4.61;92.52;97598.91;4936537;29;19982;-81
2022/04/08 13:06:27;;;;;;;;;;;;;;;4.84;95.69;97581.91;4935711;29;19982;-79
2022/04/08 13:08:52;;;;;;;;;;;;;;;5.04;98.80;97578.19;4935808;29;20394;-79
2022/04/08 13:11:17;;;;;;;;;;;;;;;5.24;100.00;97584.94;4934507;29;20480;-82
2022/04/08 13:13:43;;;;;;;;;;;;;;;5.33;100.00;97577.47;4933762;29;20523;-83
2022/04/08 13:16:08;;;;;;;;;;;;;;;5.40;100.00;97587.53;4930114;29;19919;-83
2022/04/08 13:18:33;;;;;;;;;;;;;;;5.51;100.00;97584.31;4936693;29;19923;-82
2022/04/08 13:20:59;;;;;;;;;;;;;;;5.60;100.00;97610.06;4936780;29;20021;-83
2022/04/08 13:23:24;;;;;;;;;;;;;;;5.66;100.00;97610.63;4937853;29;19926;-82
2022/04/08 13:25:50;;;;;;;;;;;;;;;5.72;100.00;97584.00;4935766;29;19956;-82
2022/04/08 13:28:16;;;;;;;;;;;;;;;5.76;100.00;97573.22;4936720;29;19922;-82
2022/04/08 13:30:41;;;;;;;;;;;;;;;5.81;100.00;97567.72;4926790;29;19946;-82
2022/04/08 13:33:07;;;;;;;;;;;;;;;5.83;100.00;97560.56;4937869;29;20355;-82
2022/04/08 13:35:33;;;;;;;;;;;;;;;5.86;100.00;97538.53;4936481;29;19927;-83
2022/04/08 13:37:58;;;;;;;;;;;;;;;5.90;100.00;97532.97;4936402;29;20343;-82
2022/04/08 13:40:23;;;;;;;;;;;;;;;5.93;100.00;97524.06;4936468;29;19930;-82
2022/04/08 13:42:49;;;;;;;;;;;;;;;5.98;100.00;97511.53;4937599;29;19954;-81
2022/04/08 13:45:14;;;;;;;;;;;;;;;6.01;100.00;97495.56;4936341;29;19923;-82
2022/04/08 13:47:40;;;;;;;;;;;;;;;6.05;100.00;97512.84;4937522;29;19919;-83
2022/04/08 13:50:05;;;;;;;;;;;;;;;6.07;100.00;97518.03;4937544;29;19922;-83
2022/04/08 13:52:31;;;;;;;;;;;;;;;6.09;100.00;97518.75;4936505;29;19929;-83
2022/04/08 13:54:57;;;;;;;;;;;;;;;6.10;100.00;97525.72;4936103;29;20382;-83
2022/04/08 13:57:22;;;;;;;;;;;;;;;6.10;100.00;97500.25;4937738;29;19966;-84
2022/04/08 13:59:47;;;;;;;;;;;;;;;6.15;100.00;97511.34;4936152;29;19923;-81
2022/04/08 14:02:14;;;;;;;;;;;;;;;6.16;100.00;97515.69;4936573;29;19919;-83
2022/04/08 14:04:39;;;;;;;;;;;;;;;6.19;100.00;97504.13;4937297;29;19974;-82
2022/04/08 14:07:05;;;;;;;;;;;;;;;6.21;100.00;97498.75;4937213;29;19927;-81
2022/04/08 14:09:30;;;;;;;;;;;;;;;6.22;100.00;97511.81;4937258;29;19977;-83
2022/04/08 14:11:55;;;;;;;;;;;;;;;6.25;100.00;97519.50;4935957;29;19918;-82
2022/04/08 14:14:20;;;;;;;;;;;;;;;6.27;100.00;97549.22;4934716;29;19923;-82
2022/04/08 14:16:46;;;;;;;;;;;;;;;6.29;100.00;97535.97;4937153;29;20468;-82
2022/04/08 14:19:11;;;;;;;;;;;;;;;6.28;100.00;97527.22;4936933;29;19915;-83
2022/04/08 14:21:36;;;;;;;;;;;;;;;6.73;100.00;97519.19;4937164;29;19926;-81
2022/04/08 14:24:01;;;;;;;;;;;;;;;6.52;100.00;97547.69;4936951;29;20366;-81
2022/04/08 14:26:27;;;;;;;;;;;;;;;6.34;100.00;97560.19;4937012;29;19929;-81
2022/04/08 14:28:52;;;;;;;;;;;;;;;5.50;100.00;97556.34;4936882;29;20335;-81
2022/04/08 14:31:18;;;;;;;;;;;;;;;5.17;100.00;97559.97;4935634;29;19923;-81
2022/04/08 14:33:43;;;;;;;;;;;;;;;5.02;100.00;97555.56;4936579;29;20259;-81
2022/04/08 14:36:09;;;;;;;;;;;;;;;4.91;100.00;97541.28;4936742;29;19926;-81
2022/04/08 14:38:35;;;;;;;;;;;;;;;4.82;100.00;97539.16;4936797;29;20409;-84
2022/04/08 14:41:00;;;;;;;;;;;;;;;4.77;100.00;97532.47;4936720;29;19923;-81
2022/04/08 14:43:26;;;;;;;;;;;;;;;4.71;100.00;97536.28;4936692;29;19925;-81
2022/04/08 14:45:51;;;;;;;;;;;;;;;4.67;100.00;97543.44;4935022;29;20386;-81
2022/04/08 14:48:16;;;;;;;;;;;;;;;4.59;100.00;97540.41;4936542;29;19919;-82
2022/04/08 14:50:41;;;;;;;;;;;;;;;4.55;100.00;97544.13;4936477;29;19925;-82
2022/04/08 14:53:07;;;;;;;;;;;;;;;4.51;99.32;97517.22;4936445;29;19928;-81
2022/04/08 14:55:32;;;;;;;;;;;;;;;4.48;98.59;97525.28;4935683;29;19926;-81
2022/04/08 14:57:59;;;;;;;;;;;;;;;4.42;97.56;97537.84;4936208;29;19918;-81
2022/04/08 15:00:24;;;;;;;;;;;;;;;4.41;96.59;97529.13;4934974;29;20359;-81
2022/04/08 15:02:52;;;;;;;;;;;;;;;4.39;95.83;97544.13;4936307;29;19926;-81
2022/04/08 15:05:17;;;;;;;;;;;;;;;4.33;95.09;97560.16;4934757;29;19926;-81
2022/04/08 15:07:42;;;;;;;;;;;;;;;4.34;94.34;97572.34;4934776;29;20298;-83
2022/04/08 15:10:09;;;;;;;;;;;;;;;4.31;93.95;97564.66;4934554;29;19927;-85
2022/04/08 15:12:34;;;;;;;;;;;;;;;4.29;93.40;97542.91;4934781;29;19966;-82
2022/04/08 15:15:00;;;;;;;;;;;;;;;4.25;93.16;97504.69;4933538;29;19923;-87
2022/04/08 15:17:26;;;;;;;;;;;;;;;4.24;92.54;97510.84;4934711;29;19920;-82
2022/04/08 15:19:52;;;;;;;;;;;;;;;4.18;92.02;97502.38;4935718;29;20297;-82
2022/04/08 15:22:17;;;;;;;;;;;;;;;4.21;91.77;97500.50;4935123;29;20045;-83
2022/04/08 15:24:42;;;;;;;;;;;;;;;4.13;91.31;97512.28;4934064;29;19935;-81
2022/04/08 15:27:07;;;;;;;;;;;;;;;4.12;90.96;97526.28;4935427;29;19927;-87
2022/04/08 15:29:33;;;;;;;;;;;;;;;4.11;90.79;97527.22;4934257;29;19929;-82
2022/04/08 15:31:59;;;;;;;;;;;;;;;4.10;90.58;97517.69;4935027;29;19923;-84
2022/04/08 15:34:24;;;;;;;;;;;;;;;4.10;90.50;97535.16;4935161;29;19974;-80
2022/04/08 15:36:50;;;;;;;;;;;;;;;4.06;90.14;97536.25;4935437;29;20003;-80
2022/04/08 15:39:16;;;;;;;;;;;;;;;4.02;89.97;97522.47;4934903;29;19942;-79
2022/04/08 15:41:42;;;;;;;;;;;;;;;4.05;89.90;97513.59;4935227;29;19982;-79
2022/04/08 15:44:07;;;;;;;;;;;;;;;3.99;89.87;97502.50;4933994;29;19922;-79
2022/04/08 15:46:33;;;;;;;;;;;;;;;4.03;89.83;97511.03;4934872;29;19933;-81
2022/04/08 15:48:58;;;;;;;;;;;;;;;4.01;89.74;97518.16;4934924;29;19930;-83
2022/04/08 15:51:24;;;;;;;;;;;;;;;4.00;89.46;97519.06;4935234;29;19931;-81
2022/04/08 15:53:49;;;;;;;;;;;;;;;4.02;89.41;97513.75;4934722;29;19965;-83
2022/04/08 15:56:14;;;;;;;;;;;;;;;3.99;89.36;97520.00;4934743;29;19930;-82
2022/04/08 15:58:42;;;;;;;;;;;;;;;3.97;89.30;97511.38;4935206;29;19974;-84
2022/04/08 16:01:07;;;;;;;;;;;;;;;3.95;89.17;97513.22;4932420;29;19927;-82
2022/04/08 16:03:32;;;;;;;;;;;;;;;3.93;89.09;97536.06;4933332;29;19927;-81
2022/04/08 16:05:58;;;;;;;;;;;;;;;3.92;89.12;97556.16;4934750;29;20393;-79
2022/04/08 16:08:23;;;;;;;;;;;;;;;3.91;88.88;97567.56;4934789;29;19934;-80
2022/04/08 16:10:50;;;;;;;;;;;;;;;3.92;88.88;97592.81;4934882;29;19923;-81
2022/04/08 16:13:15;;;;;;;;;;;;;;;3.86;88.64;97581.81;4934626;29;19926;-81
2022/04/08 16:15:40;;;;;;;;;;;;;;;3.82;88.53;97587.22;4933355;29;19949;-80
2022/04/08 16:18:06;;;;;;;;;;;;;;;3.87;88.69;97575.66;4934505;29;19978;-80
2022/04/08 16:20:32;;;;;;;;;;;;;;;3.90;88.55;97571.09;4934448;29;19934;-80
2022/04/08 16:22:58;;;;;;;;;;;;;;;3.83;88.57;97569.75;4941636;29;20370;-83
2022/04/08 16:25:23;;;;;;;;;;;;;;;3.86;88.44;97574.81;4934493;29;19938;-81
2022/04/08 16:27:48;;;;;;;;;;;;;;;3.79;88.26;97576.88;4934600;29;19926;-79
2022/04/08 16:30:14;;;;;;;;;;;;;;;3.79;88.12;97581.28;4931063;29;20424;-80
2022/04/08 16:32:40;;;;;;;;;;;;;;;3.84;88.31;97560.09;4931191;29;19927;-79
2022/04/08 16:35:06;;;;;;;;;;;;;;;3.84;88.44;97562.72;4930479;29;20527;-80
2022/04/08 16:37:31;;;;;;;;;;;;;;;3.82;88.40;97550.53;4933490;29;19926;-80
2022/04/08 16:39:56;;;;;;;;;;;;;;;3.85;88.25;97560.03;4930399;29;19933;-80
2022/04/08 16:42:22;;;;;;;;;;;;;;;3.81;88.20;97553.22;4933966;29;19935;-84
2022/04/08 16:44:47;;;;;;;;;;;;;;;3.77;88.14;97536.00;4932953;29;19930;-79
2022/04/08 16:47:13;;;;;;;;;;;;;;;3.79;88.03;97534.97;4933799;29;19923;-80
2022/04/08 16:49:38;;;;;;;;;;;;;;;3.74;88.16;97534.38;4933767;29;20014;-82
2022/04/08 16:52:03;;;;;;;;;;;;;;;3.79;88.18;97534.13;4934217;29;20302;-81
2022/04/08 16:54:30;;;;;;;;;;;;;;;3.79;88.02;97527.09;4933902;29;20370;-82
2022/04/08 16:56:56;;;;;;;;;;;;;;;3.78;88.01;97533.28;4933091;29;19927;-83
2022/04/08 16:59:21;;;;;;;;;;;;;;;3.79;87.98;97523.66;4932968;29;20351;-79
2022/04/08 17:01:47;;;;;;;;;;;;;;;3.77;87.89;97512.41;4933481;29;20087;-79
2022/04/08 17:04:12;;;;;;;;;;;;;;;3.73;87.71;97522.19;4933557;29;19962;-79
2022/04/08 17:06:37;;;;;;;;;;;;;;;3.76;87.61;97513.31;4934493;29;20014;-82
2022/04/08 17:09:02;;;;;;;;;;;;;;;3.76;87.60;97503.69;4934129;29;19958;-78
2022/04/08 17:11:28;;;;;;;;;;;;;;;3.74;87.80;97489.84;4934158;29;19935;-80
2022/04/08 17:13:53;;;;;;;;;;;;;;;3.74;87.62;97518.66;4934314;29;19978;-80
2022/04/08 17:16:18;;;;;;;;;;;;;;;3.76;87.52;97531.66;4932965;29;19927;-80
2022/04/08 17:18:43;;;;;;;;;;;;;;;3.75;87.64;97535.19;4932469;29;19973;-79
2022/04/08 17:21:09;;;;;;;;;;;;;;;3.72;87.42;97533.59;4934167;29;20061;-84
2022/04/08 17:23:35;;;;;;;;;;;;;;;3.72;87.02;97549.31;4934112;29;19922;-81
2022/04/08 17:26:02;;;;;;;;;;;;;;;3.70;87.02;97524.13;4933915;29;20007;-80
2022/04/08 17:28:28;;;;;;;;;;;;;;;3.72;86.97;97528.38;4930309;29;19923;-82
2022/04/08 17:30:53;;;;;;;;;;;;;;;3.70;86.67;97539.84;4932769;29;20286;-79
2022/04/08 17:33:18;;;;;;;;;;;;;;;3.68;86.63;97534.66;4932886;29;20302;-81
2022/04/08 17:35:44;;;;;;;;;;;;;;;3.69;86.64;97518.03;4933136;29;19931;-80
2022/04/08 17:38:09;;;;;;;;;;;;;;;3.75;86.80;97506.38;4934017;29;19975;-80
2022/04/08 17:40:35;;;;;;;;;;;;;;;3.71;86.64;97495.22;4932430;29;19923;-79
2022/04/08 17:43:00;;;;;;;;;;;;;;;3.72;86.57;97488.22;4934019;29;19926;-80
2022/04/08 17:45:26;;;;;;;;;;;;;;;3.68;86.42;97490.16;4931623;29;19929;-83
2022/04/08 17:47:54;;;;;;;;;;;;;;;3.70;86.38;97488.31;4933854;29;19926;-81
2022/04/08 17:50:19;;;;;;;;;;;;;;;3.70;86.61;97483.06;4936893;29;19930;-81
2022/04/08 17:52:44;;;;;;;;;;;;;;;3.69;86.31;97473.50;4936954;29;19927;-83
2022/04/08 17:55:10;;;;;;;;;;;;;;;3.67;86.14;97479.75;4936556;29;19925;-82
2022/04/08 17:57:36;;;;;;;;;;;;;;;3.64;85.98;97479.00;4927584;29;19927;-82
2022/04/08 18:00:02;;;;;;;;;;;;;;;3.66;85.85;97488.56;4930769;29;20291;-80
2022/04/08 18:02:29;;;;;;;;;;;;;;;3.67;85.84;97488.47;4917664;29;20395;-82
2022/04/08 18:04:54;;;;;;;;;;;;;;;3.65;85.72;97479.81;4916331;29;19923;-83
2022/04/08 18:07:19;;;;;;;;;;;;;;;3.64;85.51;97479.00;4917716;29;19930;-81
2022/04/08 18:09:45;;;;;;;;;;;;;;;3.68;85.53;97477.03;4917661;29;20017;-82
2022/04/08 18:12:10;;;;;;;;;;;;;;;3.66;85.58;97473.66;4916403;29;19923;-80
2022/04/08 18:14:36;;;;;;;;;;;;;;;3.66;85.48;97471.06;4916423;29;19919;-81
2022/04/08 18:17:04;;;;;;;;;;;;;;;3.63;85.42;97471.22;4917554;29;19927;-81
2022/04/08 18:19:30;;;;;;;;;;;;;;;3.62;85.06;97459.03;4917598;29;20010;-83
2022/04/08 18:21:55;;;;;;;;;;;;;;;3.63;84.89;97461.56;4915639;29;19982;-80
2022/04/08 18:24:21;;;;;;;;;;;;;;;3.66;84.94;97450.09;4915510;29;19923;-81
2022/04/08 18:26:46;;;;;;;;;;;;;;;3.68;84.96;97443.00;4916329;29;20371;-80
2022/04/08 18:29:11;;;;;;;;;;;;;;;3.69;85.16;97449.09;4914767;29;20011;-83
2022/04/08 18:31:37;;;;;;;;;;;;;;;3.64;84.75;97452.78;4917305;29;19962;-82
2022/04/08 18:34:03;;;;;;;;;;;;;;;3.64;84.30;97442.31;4917344;29;19927;-79
2022/04/08 18:36:30;;;;;;;;;;;;;;;3.65;84.16;97458.88;4915702;29;19926;-79
2022/04/08 18:38:56;;;;;;;;;;;;;;;3.60;83.88;97456.50;4915178;29;19927;-87
2022/04/08 18:41:21;;;;;;;;;;;;;;;3.62;84.05;97464.25;4916330;29;20310;-81
2022/04/08 18:43:46;;;;;;;;;;;;;;;3.67;84.13;97462.28;4916430;29;20014;-82
2022/04/08 18:46:11;;;;;;;;;;;;;;;3.67;84.05;97461.41;4915694;29;19923;-80
2022/04/08 18:48:38;;;;;;;;;;;;;;;3.64;83.95;97470.28;4915443;29;19934;-80
2022/04/08 18:51:05;;;;;;;;;;;;;;;3.64;83.92;97478.16;4915125;29;20427;-80
2022/04/08 18:53:30;;;;;;;;;;;;;;;3.62;83.60;97486.09;4915529;29;20039;-80
2022/04/08 18:55:56;;;;;;;;;;;;;;;3.63;83.70;97486.91;4916795;29;20018;-83
2022/04/08 18:58:21;;;;;;;;;;;;;;;3.62;83.47;97506.16;4916739;29;19927;-81
2022/04/08 19:00:46;;;;;;;;;;;;;;;3.59;82.81;97507.19;4913992;29;19923;-82
2022/04/08 19:03:12;;;;;;;;;;;;;;;3.62;82.59;97521.88;4931458;29;19923;-80
2022/04/08 19:05:39;;;;;;;;;;;;;;;3.60;82.22;97521.97;4916858;29;20501;-81
2022/04/08 19:08:05;;;;;;;;;;;;;;;3.59;81.88;97520.28;4915359;29;19945;-81
2022/04/08 19:10:30;;;;;;;;;;;;;;;3.61;81.71;97526.28;4916215;29;19934;-80
2022/04/08 19:12:56;;;;;;;;;;;;;;;3.58;81.70;97526.44;4916713;29;19930;-82
2022/04/08 19:15:21;;;;;;;;;;;;;;;3.63;81.46;97524.44;4915107;29;20030;-80
2022/04/08 19:17:47;;;;;;;;;;;;;;;3.62;81.39;97532.34;4916303;29;19931;-80
2022/04/08 19:20:13;;;;;;;;;;;;;;;3.58;81.11;97533.47;4916468;29;19929;-81